Time;durP1;ratioP1;P1;durP2;ratioP2;P2;SDS_P1;SDS_P2;PMS_P1;PMS_P2;Temp;Humidity;BMP_temperature;BMP_pressure;BME280_temperature;BME280_humidity;BME280_pressure;Samples;Min_cycle;Max_cycle;Signal;HPM_P1;HPM_P2
2021/07/08 00:00:05;;;;;;;7.95;4.43;;;;;;;;;;5090164;28;37371;-80
2021/07/08 00:02:36;;;;;;;7.38;4.28;;;;;;;;;;5083087;28;48376;-80
2021/07/08 00:05:10;;;;;;;5.75;3.88;;;;;;;;;;5090708;28;38361;-80
2021/07/08 00:07:43;;;;;;;6.30;3.95;;;;;;;;;;5090952;28;37663;-81
2021/07/08 00:10:29;;;;;;;6.68;4.18;;;;;;;;;;5076413;28;37243;-81
2021/07/08 00:13:01;;;;;;;4.25;3.72;;;;;;;;;;5086555;28;38945;-81
2021/07/08 00:15:41;;;;;;;4.37;3.40;;;;;;;;;;5091758;28;48565;-81
2021/07/08 00:18:41;;;;;;;7.55;4.05;;;;;;;;;;5076680;28;37965;-81
2021/07/08 00:24:24;;;;;;;5.55;3.90;;;;;;;;;;5097749;28;40525;-82
2021/07/08 00:27:16;;;;;;;4.47;3.90;;;;;;;;;;5091132;28;38537;-81
2021/07/08 00:29:55;;;;;;;5.22;4.07;;;;;;;;;;5092939;28;47712;-81
2021/07/08 00:35:49;;;;;;;5.93;4.20;;;;;;;;;;5082850;28;40137;-80
2021/07/08 00:38:47;;;;;;;7.40;4.47;;;;;;;;;;5089132;28;39821;-81
2021/07/08 00:41:30;;;;;;;5.88;3.75;;;;;;;;;;5091110;28;38176;-81
2021/07/08 00:43:57;;;;;;;5.50;3.80;;;;;;;;;;5089043;28;36824;-81
2021/07/08 00:46:42;;;;;;;8.10;4.45;;;;;;;;;;5090505;28;38870;-81
2021/07/08 00:49:11;;;;;;;7.55;4.80;;;;;;;;;;5074947;28;38720;-81
2021/07/08 00:51:38;;;;;;;5.40;3.88;;;;;;;;;;5092112;28;38890;-81
2021/07/08 00:54:04;;;;;;;6.90;3.70;;;;;;;;;;5093779;28;36038;-81
2021/07/08 00:56:34;;;;;;;5.68;3.58;;;;;;;;;;5095516;28;38941;-81
2021/07/08 00:59:13;;;;;;;6.95;4.25;;;;;;;;;;5092395;28;38592;-81
2021/07/08 01:01:54;;;;;;;6.97;3.95;;;;;;;;;;5093386;28;48336;-81
2021/07/08 01:04:27;;;;;;;4.65;3.38;;;;;;;;;;5090923;28;36985;-81
2021/07/08 01:07:11;;;;;;;5.65;4.00;;;;;;;;;;5090018;28;39170;-81
2021/07/08 01:09:41;;;;;;;8.00;3.65;;;;;;;;;;5088632;28;48809;-81
2021/07/08 01:12:20;;;;;;;5.85;3.53;;;;;;;;;;5083009;28;37390;-80
2021/07/08 01:15:05;;;;;;;5.00;3.33;;;;;;;;;;5094390;28;37380;-79
2021/07/08 01:17:51;;;;;;;5.55;3.92;;;;;;;;;;5078114;28;48392;-81
2021/07/08 01:23:35;;;;;;;10.02;3.85;;;;;;;;;;5081163;28;39999;-80
2021/07/08 01:26:05;;;;;;;8.13;3.88;;;;;;;;;;5090339;28;36734;-82
2021/07/08 01:28:34;;;;;;;6.88;4.30;;;;;;;;;;5069053;28;48394;-81
2021/07/08 01:31:02;;;;;;;5.00;3.80;;;;;;;;;;5075451;28;38847;-82
2021/07/08 01:33:30;;;;;;;5.10;3.90;;;;;;;;;;5059191;28;48412;-80
2021/07/08 01:36:02;;;;;;;8.50;3.95;;;;;;;;;;5095910;28;37227;-81
2021/07/08 01:38:29;;;;;;;4.82;3.90;;;;;;;;;;5239535;22;48188;-81
2021/07/08 01:40:55;;;;;;;5.80;3.70;;;;;;;;;;5097423;28;38033;-81
2021/07/08 01:43:28;;;;;;;7.28;3.97;;;;;;;;;;5095982;28;37906;-81
2021/07/08 01:46:06;;;;;;;6.25;3.70;;;;;;;;;;5093599;28;37285;-81
2021/07/08 01:48:50;;;;;;;6.00;4.22;;;;;;;;;;5092990;28;48357;-80
2021/07/08 01:54:14;;;;;;;4.18;3.53;;;;;;;;;;5099123;28;39464;-81
2021/07/08 01:56:43;;;;;;;6.20;3.72;;;;;;;;;;5096437;28;38422;-81
2021/07/08 02:02:38;;;;;;;7.63;4.18;;;;;;;;;;5097566;28;39624;-81
2021/07/08 02:05:07;;;;;;;6.28;4.15;;;;;;;;;;5093271;28;38218;-81
2021/07/08 02:07:43;;;;;;;4.57;3.95;;;;;;;;;;5102734;28;48906;-80
2021/07/08 02:10:31;;;;;;;6.05;4.20;;;;;;;;;;5092959;28;39110;-81
2021/07/08 02:13:04;;;;;;;4.93;4.20;;;;;;;;;;5094667;28;38609;-82
2021/07/08 02:15:31;;;;;;;8.65;4.20;;;;;;;;;;5070776;28;48125;-81
2021/07/08 02:18:01;;;;;;;6.93;3.72;;;;;;;;;;5108757;28;37606;-81
2021/07/08 02:23:06;;;;;;;5.38;3.80;;;;;;;;;;5564438;22;20033;-80
2021/07/08 02:25:33;;;;;;;10.57;4.45;;;;;;;;;;5093373;28;38290;-80
2021/07/08 02:28:02;;;;;;;4.72;3.80;;;;;;;;;;5091541;28;37719;-81
2021/07/08 02:36:42;;;;;;;7.38;4.78;;;;;;;;;;5354972;22;21642;31
2021/07/08 02:44:44;;;;;;;5.55;4.00;;;;;;;;;;5342728;22;20030;-80
2021/07/08 02:47:20;;;;;;;5.53;4.22;;;;;;;;;;5094906;28;38892;-80
2021/07/08 02:52:50;;;;;;;5.97;4.25;;;;;;;;;;5085586;28;50638;-81
2021/07/08 02:55:36;;;;;;;5.00;4.38;;;;;;;;;;5080212;28;38758;-81
2021/07/08 02:58:19;;;;;;;5.25;4.05;;;;;;;;;;5076115;28;38238;-81
2021/07/08 03:00:51;;;;;;;6.18;4.38;;;;;;;;;;5083735;28;38607;-81
2021/07/08 03:03:22;;;;;;;5.40;4.47;;;;;;;;;;5091556;28;39301;-81
2021/07/08 03:06:06;;;;;;;4.72;3.92;;;;;;;;;;5095526;28;38538;-81
2021/07/08 03:08:40;;;;;;;7.40;4.03;;;;;;;;;;5088869;28;48492;-80
2021/07/08 03:11:14;;;;;;;7.80;4.35;;;;;;;;;;5096113;28;37027;-81
2021/07/08 03:13:45;;;;;;;5.30;4.15;;;;;;;;;;5093975;28;38981;-81
2021/07/08 03:16:33;;;;;;;5.20;4.13;;;;;;;;;;5091800;28;38953;-81
2021/07/08 03:19:23;;;;;;;7.35;4.30;;;;;;;;;;5082578;28;38211;-81
2021/07/08 03:22:06;;;;;;;5.53;4.18;;;;;;;;;;5087898;28;49245;-81
2021/07/08 03:24:49;;;;;;;5.50;4.78;;;;;;;;;;5083620;28;48502;-81
2021/07/08 03:27:16;;;;;;;5.65;4.22;;;;;;;;;;5091943;22;38978;-81
2021/07/08 03:29:48;;;;;;;6.47;3.90;;;;;;;;;;5087116;28;38505;-81
2021/07/08 03:32:25;;;;;;;6.20;4.45;;;;;;;;;;5083506;28;36871;-81
2021/07/08 03:34:55;;;;;;;7.53;4.03;;;;;;;;;;5088851;28;38942;-81
2021/07/08 03:37:48;;;;;;;6.13;4.53;;;;;;;;;;5086359;28;38433;-81
2021/07/08 03:43:05;;;;;;;5.80;4.70;;;;;;;;;;5610246;22;20044;-81
2021/07/08 03:45:45;;;;;;;4.88;3.83;;;;;;;;;;5087560;28;48533;-81
2021/07/08 04:00:44;;;;;;;5.90;4.47;;;;;;;;;;5084972;28;50700;-81
2021/07/08 04:03:18;;;;;;;6.15;4.00;;;;;;;;;;5085574;28;37965;-81
2021/07/08 04:08:56;;;;;;;4.28;3.88;;;;;;;;;;5092515;28;50547;-81
2021/07/08 04:11:23;;;;;;;5.50;3.92;;;;;;;;;;5090200;28;38978;-81
2021/07/08 04:14:06;;;;;;;4.75;3.92;;;;;;;;;;5094405;28;36215;-81
2021/07/08 04:17:02;;;;;;;5.35;4.10;;;;;;;;;;5094269;28;48524;-81
2021/07/08 04:20:06;;;;;;;7.32;4.28;;;;;;;;;;5089217;28;47344;-81
2021/07/08 04:25:10;;;;;;;5.82;4.15;;;;;;;;;;5341080;22;20041;-82
2021/07/08 04:27:37;;;;;;;6.95;4.85;;;;;;;;;;5583352;22;36967;-81
2021/07/08 04:30:07;;;;;;;5.47;4.10;;;;;;;;;;5095673;28;39403;-82
2021/07/08 04:32:35;;;;;;;4.85;4.22;;;;;;;;;;5092452;28;48296;-80
2021/07/08 04:35:02;;;;;;;5.60;4.30;;;;;;;;;;5091153;28;38209;-81
2021/07/08 04:37:39;;;;;;;10.32;4.90;;;;;;;;;;5069746;28;38115;-80
2021/07/08 04:43:12;;;;;;;7.30;4.45;;;;;;;;;;5205840;22;40241;-81
2021/07/08 04:59:05;;;;;;;8.80;4.47;;;;;;;;;;5094812;28;49785;-81
2021/07/08 05:01:32;;;;;;;7.85;4.22;;;;;;;;;;5091465;28;47925;-81
2021/07/08 05:07:21;;;;;;;5.10;4.55;;;;;;;;;;5180305;22;50804;-82
2021/07/08 05:10:06;;;;;;;7.18;4.50;;;;;;;;;;5096938;28;37901;-81
2021/07/08 05:15:41;;;;;;;7.22;4.65;;;;;;;;;;5166074;22;20029;-82
2021/07/08 05:18:11;;;;;;;7.00;4.68;;;;;;;;;;5236998;22;38179;-81
2021/07/08 05:26:17;;;;;;;6.88;4.25;;;;;;;;;;5960364;22;20025;-82
2021/07/08 05:28:44;;;;;;;6.00;4.25;;;;;;;;;;5107538;22;38586;-81
2021/07/08 05:31:28;;;;;;;8.15;4.50;;;;;;;;;;5095235;28;38107;-81
2021/07/08 05:33:56;;;;;;;7.53;4.75;;;;;;;;;;5090459;28;37098;-80
2021/07/08 05:36:23;;;;;;;6.95;4.55;;;;;;;;;;5092544;28;38955;-81
2021/07/08 05:38:56;;;;;;;5.45;3.80;;;;;;;;;;5093296;28;37959;-81
2021/07/08 05:46:35;;;;;;;7.53;4.72;;;;;;;;;;5615317;22;20046;-80
2021/07/08 05:49:01;;;;;;;7.45;5.15;;;;;;;;;;5079344;28;39984;-80
2021/07/08 05:51:36;;;;;;;6.85;4.18;;;;;;;;;;5076964;28;47258;-80
2021/07/08 05:54:03;;;;;;;10.57;5.40;;;;;;;;;;5074085;28;38252;-80
2021/07/08 05:56:34;;;;;;;7.00;4.90;;;;;;;;;;5080541;28;38683;-80
2021/07/08 05:59:01;;;;;;;7.65;5.07;;;;;;;;;;5084556;28;38821;-80
2021/07/08 06:01:28;;;;;;;9.75;5.00;;;;;;;;;;5085477;28;37964;-81
2021/07/08 06:03:57;;;;;;;8.80;5.35;;;;;;;;;;5083545;28;36811;-82
2021/07/08 06:06:24;;;;;;;7.07;4.28;;;;;;;;;;5331968;22;39246;-82
2021/07/08 06:08:50;;;;;;;10.40;4.30;;;;;;;;;;5184165;22;40378;-80
2021/07/08 06:11:17;;;;;;;5.15;3.35;;;;;;;;;;5079613;28;38902;-78
2021/07/08 06:13:43;;;;;;;6.07;3.22;;;;;;;;;;5081392;28;37669;-80
2021/07/08 06:16:12;;;;;;;5.50;3.30;;;;;;;;;;5083274;28;37754;-81
2021/07/08 06:18:55;;;;;;;4.00;3.05;;;;;;;;;;5083858;28;38183;-80
2021/07/08 06:21:24;;;;;;;4.05;2.47;;;;;;;;;;5080050;28;38119;-82
2021/07/08 06:32:07;;;;;;;2.42;2.08;;;;;;;;;;5486686;22;20041;-82
2021/07/08 06:37:37;;;;;;;1.95;1.23;;;;;;;;;;5084695;28;48704;-81
2021/07/08 06:40:30;;;;;;;4.72;1.52;;;;;;;;;;5075318;28;37948;-80
2021/07/08 06:45:35;;;;;;;1.52;1.08;;;;;;;;;;5122671;22;20041;-78
2021/07/08 06:48:03;;;;;;;2.10;1.60;;;;;;;;;;5081737;28;40249;-80
2021/07/08 06:50:36;;;;;;;5.07;1.50;;;;;;;;;;5080036;28;37681;-80
2021/07/08 06:53:06;;;;;;;1.98;1.25;;;;;;;;;;5084106;28;39428;-79
2021/07/08 06:55:34;;;;;;;4.57;1.45;;;;;;;;;;5080469;28;36598;-80
2021/07/08 06:58:00;;;;;;;3.78;1.50;;;;;;;;;;5079189;28;38400;-80
2021/07/08 07:00:32;;;;;;;1.67;1.13;;;;;;;;;;5081561;28;47538;-79
2021/07/08 07:02:59;;;;;;;;;;;;;;;;;;5079706;28;39078;-79
2021/07/08 07:05:26;;;;;;;2.42;1.42;;;;;;;;;;5077232;28;36194;-79
2021/07/08 07:07:52;;;;;;;2.60;1.50;;;;;;;;;;5073505;28;37741;-79
2021/07/08 07:10:20;;;;;;;1.58;1.48;;;;;;;;;;5073461;28;38622;-80
2021/07/08 07:12:48;;;;;;;2.67;1.80;;;;;;;;;;5083755;28;38407;-79
2021/07/08 07:15:31;;;;;;;3.67;1.30;;;;;;;;;;5075300;28;35914;-77
2021/07/08 07:17:57;;;;;;;1.98;1.45;;;;;;;;;;5089769;28;38254;-80
2021/07/08 07:20:24;;;;;;;2.15;1.60;;;;;;;;;;5075223;28;38544;-81
2021/07/08 07:22:57;;;;;;;2.58;1.60;;;;;;;;;;5098082;28;38067;-81
2021/07/08 07:25:25;;;;;;;2.13;1.48;;;;;;;;;;5089008;28;35959;-79
2021/07/08 07:27:56;;;;;;;4.15;1.70;;;;;;;;;;5091906;28;39643;-80
2021/07/08 07:30:26;;;;;;;1.70;1.38;;;;;;;;;;5072215;28;38206;-80
2021/07/08 07:32:54;;;;;;;2.72;1.50;;;;;;;;;;5081917;28;39497;-80
2021/07/08 07:35:21;;;;;;;2.75;1.40;;;;;;;;;;5079436;28;36514;-80
2021/07/08 07:37:49;;;;;;;2.80;1.25;;;;;;;;;;5074879;28;40067;-79
2021/07/08 07:40:16;;;;;;;1.33;1.15;;;;;;;;;;5084078;28;39382;-79
2021/07/08 07:42:43;;;;;;;1.98;1.50;;;;;;;;;;5081731;28;37624;-79
2021/07/08 07:45:10;;;;;;;1.73;1.38;;;;;;;;;;5087328;28;37155;-79
2021/07/08 07:47:36;;;;;;;2.55;1.65;;;;;;;;;;5090164;28;39426;-79
2021/07/08 07:50:04;;;;;;;4.05;1.63;;;;;;;;;;5095099;28;38971;-79
2021/07/08 07:52:31;;;;;;;3.03;1.70;;;;;;;;;;5083273;28;48142;-79
2021/07/08 07:54:57;;;;;;;4.90;1.85;;;;;;;;;;5099772;28;39762;-79
2021/07/08 07:57:24;;;;;;;3.10;1.73;;;;;;;;;;5081312;28;37493;-78
2021/07/08 07:59:50;;;;;;;2.10;1.60;;;;;;;;;;5090598;28;40256;-79
2021/07/08 08:02:19;;;;;;;5.55;2.20;;;;;;;;;;5074647;28;39093;-79
2021/07/08 08:04:53;;;;;;;5.07;2.55;;;;;;;;;;5070037;28;36980;-79
2021/07/08 08:10:06;;;;;;;2.85;2.08;;;;;;;;;;5084705;28;39293;-82
2021/07/08 08:12:33;;;;;;;4.95;2.60;;;;;;;;;;5074292;28;38226;-80
2021/07/08 08:15:03;;;;;;;3.28;2.00;;;;;;;;;;5080047;28;36171;-81
2021/07/08 08:22:42;;;;;;;8.23;2.45;;;;;;;;;;5784940;22;20261;-80
2021/07/08 08:25:11;;;;;;;3.08;2.10;;;;;;;;;;5094869;28;36724;-80
2021/07/08 08:27:39;;;;;;;2.33;1.50;;;;;;;;;;5099723;28;40210;-81
2021/07/08 08:30:06;;;;;;;2.88;1.85;;;;;;;;;;5086509;28;38980;-81
2021/07/08 08:32:36;;;;;;;3.47;2.00;;;;;;;;;;5083894;28;37359;-80
2021/07/08 08:35:21;;;;;;;2.53;1.80;;;;;;;;;;5088534;28;37169;-79
2021/07/08 09:01:35;;;;;;;;;;;;;;;;;;;;;
2021/07/08 09:04:30;;;;;;;4.03;2.53;;;;;;;;;;5082184;28;38049;-79
2021/07/08 09:07:30;;;;;;;4.32;2.70;;;;;;;;;;5071529;28;47633;-78
2021/07/08 09:10:28;;;;;;;4.22;2.28;;;;;;;;;;5030650;28;48402;-81
2021/07/08 09:13:18;;;;;;;;;;;;;;;;;;;;;
2021/07/08 09:15:55;;;;;;;3.83;2.50;;;;;;;;;;5083386;28;39041;-79
2021/07/08 09:18:36;;;;;;;1.90;1.80;;;;;;;;;;5079577;28;36011;-79
2021/07/08 09:21:14;;;;;;;2.63;2.28;;;;;;;;;;5077748;28;38443;-78
2021/07/08 09:24:01;;;;;;;3.45;2.50;;;;;;;;;;5076888;28;38365;-79
2021/07/08 09:26:28;;;;;;;7.57;2.42;;;;;;;;;;5061346;28;38176;-79
2021/07/08 09:29:20;;;;;;;4.70;2.80;;;;;;;;;;5084298;28;36846;-81
2021/07/08 09:32:04;;;;;;;2.60;2.35;;;;;;;;;;5070235;28;48312;-80
2021/07/08 09:34:51;;;;;;;3.42;2.50;;;;;;;;;;5089109;28;48535;-80
2021/07/08 09:37:46;;;;;;;2.72;2.10;;;;;;;;;;5083553;28;37908;-80
2021/07/08 09:40:20;;;;;;;4.97;2.83;;;;;;;;;;5074937;28;36866;-80
2021/07/08 09:42:50;;;;;;;3.20;2.78;;;;;;;;;;5073779;28;39248;-79
2021/07/08 09:45:18;;;;;;;2.40;2.20;;;;;;;;;;5064757;28;37889;-79
2021/07/08 09:47:46;;;;;;;3.38;2.15;;;;;;;;;;5072386;28;38284;-80
2021/07/08 09:50:34;;;;;;;4.05;2.50;;;;;;;;;;5077681;28;36060;-81
2021/07/08 09:53:16;;;;;;;4.68;2.33;;;;;;;;;;5073985;28;38492;-80
2021/07/08 09:59:00;;;;;;;5.85;2.05;;;;;;;;;;5076815;28;50196;-81
2021/07/08 10:01:27;;;;;;;4.20;2.55;;;;;;;;;;5076357;27;35966;-79
2021/07/08 10:03:55;;;;;;;3.60;2.67;;;;;;;;;;5082339;28;38313;-79
2021/07/08 10:06:22;;;;;;;3.67;2.30;;;;;;;;;;5084216;28;38569;-80
2021/07/08 10:19:45;;;;;;;3.30;2.30;;;;;;;;;;6118621;22;20016;-80
2021/07/08 10:30:46;;;;;;;3.28;2.35;;;;;;;;;;6064201;22;20044;-81
2021/07/08 10:36:42;;;;;;;3.13;2.10;;;;;;;;;;5082923;28;40498;-80
2021/07/08 10:39:28;;;;;;;;;;;;;;;;;;5069451;28;39186;-81
2021/07/08 10:42:24;;;;;;;3.80;2.70;;;;;;;;;;5080119;28;37989;-81
2021/07/08 10:45:13;;;;;;;4.55;2.35;;;;;;;;;;6075799;22;21131;-81
2021/07/08 10:47:41;;;;;;;5.35;2.53;;;;;;;;;;5686361;22;48137;-77
2021/07/08 10:50:27;;;;;;;5.00;2.28;;;;;;;;;;5056726;28;38535;-81
2021/07/08 10:52:57;;;;;;;3.72;2.30;;;;;;;;;;5045693;28;48841;-79
2021/07/08 10:55:53;;;;;;;2.95;2.17;;;;;;;;;;5039783;28;37238;-78
2021/07/08 10:58:40;;;;;;;7.95;3.03;;;;;;;;;;5045760;28;39983;-78
2021/07/08 11:01:07;;;;;;;3.92;2.60;;;;;;;;;;5057707;27;38786;-78
2021/07/08 11:03:42;;;;;;;5.30;2.67;;;;;;;;;;5077389;28;38001;-80
2021/07/08 11:06:25;;;;;;;3.97;2.50;;;;;;;;;;5191672;22;36616;-79
2021/07/08 11:09:05;;;;;;;4.35;2.50;;;;;;;;;;5069460;28;40677;-80
2021/07/08 11:11:34;;;;;;;3.60;2.17;;;;;;;;;;5065387;28;47920;-80
2021/07/08 11:14:21;;;;;;;5.10;2.58;;;;;;;;;;5077273;28;38678;-80
2021/07/08 11:16:48;;;;;;;4.80;2.72;;;;;;;;;;5078185;28;47285;-81
2021/07/08 11:19:26;;;;;;;4.22;2.30;;;;;;;;;;5067201;28;38421;-80
2021/07/08 11:21:54;;;;;;;4.28;2.70;;;;;;;;;;5069897;28;38865;-79
2021/07/08 11:24:23;;;;;;;3.33;2.30;;;;;;;;;;5073537;28;37079;-81
2021/07/08 11:26:57;;;;;;;3.95;2.25;;;;;;;;;;5054652;28;36785;-81
2021/07/08 11:29:55;;;;;;;5.22;2.70;;;;;;;;;;5060358;28;49470;-81
2021/07/08 11:32:47;;;;;;;5.03;2.63;;;;;;;;;;5084322;28;39037;-80
2021/07/08 11:35:31;;;;;;;4.63;2.78;;;;;;;;;;5054564;28;38542;-80
2021/07/08 11:38:17;;;;;;;4.55;2.50;;;;;;;;;;5086303;28;38389;-81
2021/07/08 11:41:01;;;;;;;5.57;2.92;;;;;;;;;;5084881;28;38932;-81
2021/07/08 11:43:38;;;;;;;5.60;2.40;;;;;;;;;;5088753;28;37987;-80
2021/07/08 11:46:21;;;;;;;3.92;2.20;;;;;;;;;;5078368;28;38313;-81
2021/07/08 11:48:51;;;;;;;4.72;2.47;;;;;;;;;;5086463;28;36514;-80
2021/07/08 11:51:30;;;;;;;4.20;2.33;;;;;;;;;;5058291;28;39346;-80
2021/07/08 11:53:57;;;;;;;2.88;2.20;;;;;;;;;;5066273;28;38782;-80
2021/07/08 11:56:32;;;;;;;3.75;2.40;;;;;;;;;;5074020;28;38595;-79
2021/07/08 11:59:04;;;;;;;3.55;2.58;;;;;;;;;;5074675;28;36262;-80
2021/07/08 12:01:31;;;;;;;3.40;1.98;;;;;;;;;;5073437;28;47478;-80
2021/07/08 12:03:59;;;;;;;2.78;1.92;;;;;;;;;;5078276;28;37321;-81
2021/07/08 12:06:29;;;;;;;4.15;2.47;;;;;;;;;;5075526;28;39907;-79
2021/07/08 12:09:01;;;;;;;3.05;2.20;;;;;;;;;;5086358;28;35980;-79
2021/07/08 12:11:38;;;;;;;6.03;2.28;;;;;;;;;;5069942;28;47152;-80
2021/07/08 12:14:24;;;;;;;2.90;1.73;;;;;;;;;;5087414;28;37598;-81
2021/07/08 12:16:55;;;;;;;5.07;2.33;;;;;;;;;;5073282;28;36953;-81
2021/07/08 12:19:29;;;;;;;4.30;1.98;;;;;;;;;;5073575;28;37653;-81
2021/07/08 12:22:05;;;;;;;4.47;2.38;;;;;;;;;;5068213;28;40254;-80
2021/07/08 12:24:50;;;;;;;2.30;1.92;;;;;;;;;;5082952;28;47143;-81
2021/07/08 12:27:24;;;;;;;5.80;2.63;;;;;;;;;;5038029;28;38072;-81
2021/07/08 12:29:50;;;;;;;4.22;2.45;;;;;;;;;;5076279;28;36856;-80
2021/07/08 12:32:22;;;;;;;4.68;2.55;;;;;;;;;;5082929;28;39909;-80
2021/07/08 12:34:53;;;;;;;4.03;2.38;;;;;;;;;;5084922;28;39846;-79
2021/07/08 12:37:20;;;;;;;3.88;2.20;;;;;;;;;;5068004;28;39274;-80
2021/07/08 12:39:53;;;;;;;4.63;2.42;;;;;;;;;;5070494;28;35888;-79
2021/07/08 12:42:21;;;;;;;3.50;2.40;;;;;;;;;;5056117;28;39105;-80
2021/07/08 12:44:50;;;;;;;2.90;2.10;;;;;;;;;;5074704;28;40034;-80
2021/07/08 12:47:18;;;;;;;3.55;2.20;;;;;;;;;;5059999;28;36987;-80
2021/07/08 12:49:46;;;;;;;5.97;2.20;;;;;;;;;;5079989;28;36761;-80
2021/07/08 12:52:13;;;;;;;3.22;2.00;;;;;;;;;;5058589;28;40897;-79
2021/07/08 12:54:40;;;;;;;4.68;2.28;;;;;;;;;;5081145;28;38795;-80
2021/07/08 12:57:10;;;;;;;2.58;2.25;;;;;;;;;;5072451;28;38522;-79
2021/07/08 12:59:37;;;;;;;3.83;2.53;;;;;;;;;;5066221;28;38477;-78
2021/07/08 13:02:07;;;;;;;5.03;2.42;;;;;;;;;;5058873;28;38882;-78
2021/07/08 13:04:34;;;;;;;4.00;2.28;;;;;;;;;;5075937;28;40946;-77
2021/07/08 13:07:02;;;;;;;7.13;2.88;;;;;;;;;;5064429;28;39353;-78
2021/07/08 13:09:28;;;;;;;5.63;2.88;;;;;;;;;;5068393;28;47534;-78
2021/07/08 13:11:55;;;;;;;6.15;2.72;;;;;;;;;;5072698;28;39714;-78
2021/07/08 13:14:23;;;;;;;5.78;2.65;;;;;;;;;;5068841;28;36824;-79
2021/07/08 13:20:36;;;;;;;3.78;2.60;;;;;;;;;;5081219;28;50622;-81
2021/07/08 13:23:14;;;;;;;3.42;2.40;;;;;;;;;;5095711;27;38259;-81
2021/07/08 13:25:40;;;;;;;4.80;2.60;;;;;;;;;;5136443;27;40387;-81
2021/07/08 13:28:22;;;;;;;3.85;2.45;;;;;;;;;;5088785;27;37887;-81
2021/07/08 13:31:13;;;;;;;3.67;2.50;;;;;;;;;;5079597;28;38317;-82
2021/07/08 13:33:45;;;;;;;3.47;2.88;;;;;;;;;;5068747;28;39724;-78
2021/07/08 13:36:18;;;;;;;4.78;2.75;;;;;;;;;;5079465;28;38744;-80
2021/07/08 13:38:46;;;;;;;4.47;2.85;;;;;;;;;;5071314;28;38068;-80
2021/07/08 13:41:13;;;;;;;5.45;3.33;;;;;;;;;;5071006;28;37345;-80
2021/07/08 13:43:46;;;;;;;4.20;2.78;;;;;;;;;;5084082;28;40011;-80
2021/07/08 13:46:17;;;;;;;3.78;2.72;;;;;;;;;;5070420;28;38178;-79
2021/07/08 13:48:44;;;;;;;3.95;2.67;;;;;;;;;;5064938;28;39495;-77
2021/07/08 13:51:11;;;;;;;3.28;2.83;;;;;;;;;;5063900;28;38185;-80
2021/07/08 13:53:38;;;;;;;4.85;2.95;;;;;;;;;;5066957;28;39997;-78
2021/07/08 13:56:06;;;;;;;5.70;3.40;;;;;;;;;;5054159;28;39426;-79
2021/07/08 13:58:32;;;;;;;6.53;3.15;;;;;;;;;;5075306;28;41676;-78
2021/07/08 14:00:59;;;;;;;5.15;3.03;;;;;;;;;;5088808;28;35953;-79
2021/07/08 14:03:25;;;;;;;4.13;2.80;;;;;;;;;;5091774;28;38927;-80
2021/07/08 14:06:05;;;;;;;4.60;2.95;;;;;;;;;;5078449;28;38561;-80
2021/07/08 14:08:41;;;;;;;4.20;3.28;;;;;;;;;;5091542;28;48051;-79
2021/07/08 14:13:53;;;;;;;5.82;3.70;;;;;;;;;;5527440;22;20033;-83
2021/07/08 14:19:13;;;;;;;4.88;3.38;;;;;;;;;;5337046;22;20051;-79
2021/07/08 14:21:40;;;;;;;5.60;3.42;;;;;;;;;;5170325;22;48412;-81
2021/07/08 14:24:14;;;;;;;3.50;2.97;;;;;;;;;;5065896;28;38738;-80
2021/07/08 14:26:42;;;;;;;3.90;3.38;;;;;;;;;;5055821;28;37646;-79
2021/07/08 14:29:11;;;;;;;8.25;4.05;;;;;;;;;;5053491;28;36697;-79
2021/07/08 14:31:38;;;;;;;6.72;3.47;;;;;;;;;;5059672;28;37056;-80
2021/07/08 14:34:04;;;;;;;3.72;2.97;;;;;;;;;;5057535;28;39333;-79
2021/07/08 14:36:30;;;;;;;4.38;3.13;;;;;;;;;;5057396;28;37447;-80
2021/07/08 14:38:57;;;;;;;3.83;3.20;;;;;;;;;;5056643;28;38302;-80
2021/07/08 14:41:31;;;;;;;7.05;4.32;;;;;;;;;;5061809;28;36222;-81
2021/07/08 14:44:07;;;;;;;5.32;4.05;;;;;;;;;;5050213;28;39912;-79
2021/07/08 14:46:36;;;;;;;5.60;4.00;;;;;;;;;;5048628;28;48768;-79
2021/07/08 14:49:04;;;;;;;4.25;3.40;;;;;;;;;;5036584;28;36979;-79
2021/07/08 14:51:36;;;;;;;5.32;3.25;;;;;;;;;;5060791;28;40191;-79
2021/07/08 14:54:27;;;;;;;4.95;3.85;;;;;;;;;;5047699;28;39219;-80
2021/07/08 15:03:13;;;;;;;4.07;3.27;;;;;;;;;;4802659;29;49021;-80
2021/07/08 15:05:39;;;;;;;3.78;3.30;;;;;;;;;;4936219;28;39218;-80
2021/07/08 15:08:24;;;;;;;4.97;3.55;;;;;;;;;;5044184;28;37739;-81
2021/07/08 15:11:03;;;;;;;5.13;3.83;;;;;;;;;;5062911;28;38938;-81
2021/07/08 15:14:17;;;;;;;;;;;;;;;;;;;;;
2021/07/08 15:25:49;;;;;;;6.53;3.63;;;;;;;;;;5396721;22;20092;-79
2021/07/08 15:28:21;;;;;;;7.13;3.85;;;;;;;;;;5074985;28;40217;-80
2021/07/08 15:36:26;;;;;;;4.90;3.05;;;;;;;;;;5329497;22;20049;-79
2021/07/08 15:38:53;;;;;;;3.25;2.90;;;;;;;;;;5088389;28;40108;-80
2021/07/08 15:41:31;;;;;;;2.85;2.25;;;;;;;;;;5073543;27;38006;-82
2021/07/08 15:43:58;;;;;;;3.35;2.20;;;;;;;;;;5124942;22;37368;-80
2021/07/08 15:46:34;;;;;;;3.35;2.83;;;;;;;;;;5048284;28;38406;-79
2021/07/08 15:49:04;;;;;;;3.20;2.90;;;;;;;;;;5062457;28;39822;-81
2021/07/08 15:51:31;;;;;;;3.30;2.90;;;;;;;;;;5022215;28;48715;-79
2021/07/08 15:54:02;;;;;;;3.88;3.03;;;;;;;;;;5059089;28;38144;-81
2021/07/08 15:56:39;;;;;;;4.40;3.03;;;;;;;;;;5028842;28;48588;-81
2021/07/08 15:59:07;;;;;;;3.20;2.90;;;;;;;;;;5052538;28;39126;-80
2021/07/08 16:01:34;;;;;;;3.95;3.20;;;;;;;;;;5053949;28;39043;-79
2021/07/08 16:04:01;;;;;;;3.42;3.03;;;;;;;;;;5039921;28;36901;-81
2021/07/08 16:06:27;;;;;;;6.57;3.13;;;;;;;;;;5026378;28;47258;-80
2021/07/08 16:08:54;;;;;;;5.18;3.05;;;;;;;;;;5057128;28;37637;-80
2021/07/08 16:11:21;;;;;;;3.58;3.00;;;;;;;;;;5061284;28;38309;-80
2021/07/08 16:13:48;;;;;;;4.03;2.90;;;;;;;;;;5043201;28;37349;-80
2021/07/08 16:16:17;;;;;;;4.50;3.05;;;;;;;;;;5041273;28;38095;-80
2021/07/08 16:18:44;;;;;;;5.40;2.92;;;;;;;;;;5074538;28;39698;-80
2021/07/08 16:21:10;;;;;;;3.60;2.83;;;;;;;;;;5084629;28;38580;-80
2021/07/08 16:23:37;;;;;;;2.70;2.50;;;;;;;;;;5091909;28;39754;-80
2021/07/08 16:26:06;;;;;;;4.60;2.70;;;;;;;;;;5091772;28;37050;-80
2021/07/08 16:28:32;;;;;;;3.97;2.67;;;;;;;;;;5085647;28;39636;-80
2021/07/08 16:30:59;;;;;;;3.03;2.00;;;;;;;;;;5064877;28;37916;-80
2021/07/08 16:33:26;;;;;;;4.25;2.20;;;;;;;;;;5067560;28;37195;-79
2021/07/08 16:35:54;;;;;;;3.92;2.13;;;;;;;;;;5079421;28;35601;-80
2021/07/08 16:38:21;;;;;;;2.85;2.38;;;;;;;;;;5073575;28;38093;-79
2021/07/08 16:40:47;;;;;;;5.35;2.38;;;;;;;;;;5062540;28;39218;-79
2021/07/08 16:43:17;;;;;;;2.63;2.42;;;;;;;;;;5077659;27;39650;-80
2021/07/08 16:45:47;;;;;;;2.65;2.20;;;;;;;;;;5065607;28;38019;-80
2021/07/08 16:48:19;;;;;;;2.45;2.25;;;;;;;;;;5084334;28;39320;-80
2021/07/08 16:50:55;;;;;;;2.58;2.38;;;;;;;;;;5077765;28;39707;-81
2021/07/08 16:56:27;;;;;;;2.22;1.75;;;;;;;;;;5072132;28;38651;-80
2021/07/08 16:58:54;;;;;;;2.55;2.03;;;;;;;;;;5076206;28;38417;-80
2021/07/08 17:01:22;;;;;;;2.15;1.88;;;;;;;;;;5072520;28;37616;-80
2021/07/08 17:03:51;;;;;;;3.28;2.25;;;;;;;;;;5077906;28;37032;-79
2021/07/08 17:06:18;;;;;;;2.70;2.30;;;;;;;;;;5066856;28;37964;-80
2021/07/08 17:08:44;;;;;;;2.47;2.28;;;;;;;;;;5052169;28;39357;-80
2021/07/08 17:11:11;;;;;;;2.58;1.88;;;;;;;;;;5063428;28;39948;-81
2021/07/08 17:13:38;;;;;;;3.13;2.13;;;;;;;;;;5082903;28;38614;-81
2021/07/08 17:16:06;;;;;;;3.58;2.28;;;;;;;;;;5080496;28;37465;-81
2021/07/08 17:18:35;;;;;;;3.17;2.40;;;;;;;;;;5068648;28;39672;-80
2021/07/08 17:21:01;;;;;;;4.05;2.80;;;;;;;;;;5068511;28;37670;-80
2021/07/08 17:23:34;;;;;;;3.40;2.38;;;;;;;;;;5080457;28;46961;-80
2021/07/08 17:26:02;;;;;;;3.65;2.72;;;;;;;;;;5090350;28;21026;-80
2021/07/08 17:28:31;;;;;;;3.20;2.70;;;;;;;;;;5061863;28;47443;-81
2021/07/08 17:30:58;;;;;;;3.25;2.60;;;;;;;;;;5080448;28;36950;-80
2021/07/08 17:33:28;;;;;;;3.70;2.42;;;;;;;;;;5078211;28;36897;-80
2021/07/08 17:35:58;;;;;;;3.40;2.50;;;;;;;;;;5080532;28;37389;-81
2021/07/08 17:38:28;;;;;;;3.10;2.80;;;;;;;;;;5086078;28;39354;-81
2021/07/08 17:40:55;;;;;;;3.05;2.63;;;;;;;;;;5088545;28;40620;-81
2021/07/08 17:43:21;;;;;;;2.92;2.10;;;;;;;;;;5066430;28;37506;-81
2021/07/08 17:46:00;;;;;;;3.08;2.42;;;;;;;;;;5070167;28;36310;-80
2021/07/08 17:48:26;;;;;;;4.70;2.45;;;;;;;;;;5069424;28;38819;-80
2021/07/08 17:50:53;;;;;;;3.15;2.55;;;;;;;;;;5067037;28;39994;-78
2021/07/08 17:53:21;;;;;;;5.55;2.78;;;;;;;;;;5068676;28;39620;-78
2021/07/08 17:55:48;;;;;;;4.97;2.65;;;;;;;;;;5070181;28;37531;-78
2021/07/08 17:58:14;;;;;;;3.40;2.33;;;;;;;;;;5065315;28;38544;-79
2021/07/08 18:00:40;;;;;;;3.63;2.33;;;;;;;;;;5068266;28;38932;-79
2021/07/08 18:03:07;;;;;;;2.28;2.03;;;;;;;;;;5068652;28;38972;-79
2021/07/08 18:05:33;;;;;;;2.67;2.05;;;;;;;;;;5064510;28;36594;-79
2021/07/08 18:08:00;;;;;;;2.90;2.25;;;;;;;;;;5067208;28;39919;-81
2021/07/08 18:10:28;;;;;;;2.13;1.80;;;;;;;;;;5077755;28;37720;-80
2021/07/08 18:12:58;;;;;;;2.22;1.95;;;;;;;;;;5086125;28;36505;-81
2021/07/08 18:15:25;;;;;;;2.88;2.03;;;;;;;;;;5050490;28;37501;-80
2021/07/08 18:17:52;;;;;;;2.97;2.10;;;;;;;;;;5070344;28;38614;-78
2021/07/08 18:20:19;;;;;;;2.83;2.20;;;;;;;;;;5072538;28;38161;-80
2021/07/08 18:22:46;;;;;;;2.00;1.90;;;;;;;;;;5070939;28;39712;-79
2021/07/08 18:25:16;;;;;;;4.57;1.67;;;;;;;;;;5073345;28;38742;-81
2021/07/08 18:27:43;;;;;;;3.40;1.77;;;;;;;;;;5060413;28;39295;-78
2021/07/08 18:30:10;;;;;;;1.63;1.50;;;;;;;;;;5069104;28;39361;-80